createdAt,value
2018-01-27T00:00:05.692Z,23.52
2018-01-27T00:00:29.727Z,22.75
2018-01-27T00:00:53.789Z,22.77
2018-01-27T00:01:17.663Z,22.50
2018-01-27T00:01:41.681Z,21.77
2018-01-27T00:02:05.739Z,22.92
2018-01-27T00:02:29.821Z,22.90
2018-01-27T00:02:53.610Z,22.75
2018-01-27T00:03:17.667Z,22.35
2018-01-27T00:03:41.696Z,22.25
2018-01-27T00:04:05.177Z,22.03
2018-01-27T00:04:28.934Z,21.90
2018-01-27T00:04:52.311Z,22.92
2018-01-27T00:05:16.081Z,22.77
2018-01-27T00:05:39.819Z,23.50
2018-01-27T00:06:03.623Z,23.42
2018-01-27T00:06:27.379Z,22.83
2018-01-27T00:06:50.827Z,22.75
2018-01-27T00:07:14.580Z,22.73
2018-01-27T00:07:38.331Z,22.90
2018-01-27T00:08:02.064Z,23.23
2018-01-27T00:08:25.796Z,23.10
2018-01-27T00:08:49.561Z,22.13
2018-01-27T00:09:12.763Z,21.77
2018-01-27T00:09:36.532Z,22.65
2018-01-27T00:10:00.291Z,22.33
2018-01-27T00:10:23.743Z,21.60
2018-01-27T00:10:47.508Z,20.70
2018-01-27T00:11:11.298Z,21.25
2018-01-27T00:11:35.325Z,22.08
2018-01-27T00:11:59.394Z,22.83
2018-01-27T00:12:23.023Z,23.35
2018-01-27T00:12:46.451Z,22.73
2018-01-27T00:13:10.233Z,22.35
2018-01-27T00:13:34.267Z,23.02
2018-01-27T00:13:58.308Z,23.15
2018-01-27T00:14:21.572Z,23.60
2018-01-27T00:14:45.133Z,22.95
2018-01-27T00:15:08.393Z,22.45
2018-01-27T00:15:31.947Z,22.65
2018-01-27T00:15:55.487Z,22.83
2018-01-27T00:16:19.275Z,22.50
2018-01-27T00:16:43.019Z,23.02
2018-01-27T00:17:07.108Z,24.02
2018-01-27T00:17:31.169Z,23.98
2018-01-27T00:17:54.628Z,22.70
2018-01-27T00:18:18.372Z,23.27
2018-01-27T00:18:42.130Z,23.17
2018-01-27T00:19:05.980Z,22.20
2018-01-27T00:19:30.021Z,21.73
2018-01-27T00:19:53.881Z,22.15
2018-01-27T00:20:17.023Z,22.83
2018-01-27T00:20:40.891Z,22.30
2018-01-27T00:21:04.343Z,22.77
2018-01-27T00:21:28.173Z,23.02
2018-01-27T00:21:51.931Z,23.33
2018-01-27T00:22:15.970Z,22.70
2018-01-27T00:22:51.218Z,21.95
2018-01-27T00:23:15.008Z,22.70
2018-01-27T00:23:38.762Z,23.05
2018-01-27T00:24:02.238Z,22.35
2018-01-27T00:24:25.988Z,22.23
2018-01-27T00:24:49.736Z,22.13
2018-01-27T00:25:13.771Z,21.87
2018-01-27T00:25:37.836Z,22.70
2018-01-27T00:26:02.009Z,22.90
2018-01-27T00:26:26.069Z,22.83
2018-01-27T00:26:49.903Z,23.38
2018-01-27T00:27:13.688Z,23.85
2018-01-27T00:27:37.746Z,24.42
2018-01-27T00:28:01.849Z,23.33
2018-01-27T00:28:25.595Z,22.30
2018-01-27T00:28:49.058Z,21.77
2018-01-27T00:29:12.820Z,22.70
2018-01-27T00:29:36.559Z,23.77
2018-01-27T00:30:00.025Z,23.15
2018-01-27T00:30:23.792Z,23.55
2018-01-27T00:30:47.628Z,22.87
2018-01-27T00:31:11.730Z,22.17
2018-01-27T00:31:35.472Z,22.70
2018-01-27T00:31:58.964Z,23.58
2018-01-27T00:32:22.732Z,24.42
2018-01-27T00:32:46.518Z,25.10
2018-01-27T00:33:10.551Z,25.02
2018-01-27T00:33:34.680Z,24.50
2018-01-27T00:33:58.455Z,24.42
2018-01-27T00:34:22.503Z,24.00
2018-01-27T00:34:45.963Z,24.10
2018-01-27T00:35:09.711Z,24.10
2018-01-27T00:35:33.466Z,24.80
2018-01-27T00:35:57.223Z,23.87
2018-01-27T00:36:20.679Z,23.55
2018-01-27T00:36:44.431Z,22.83
2018-01-27T00:37:08.250Z,22.37
2018-01-27T00:37:32.282Z,21.98
2018-01-27T00:37:56.312Z,22.70
2018-01-27T00:38:20.350Z,23.73
2018-01-27T00:38:44.113Z,24.40
2018-01-27T00:39:07.571Z,24.17
2018-01-27T00:39:31.312Z,23.35
2018-01-27T00:39:55.069Z,22.05
2018-01-27T00:40:18.517Z,22.48
2018-01-27T00:40:42.268Z,22.90
2018-01-27T00:41:06.044Z,23.62
2018-01-27T00:41:30.131Z,23.70
2018-01-27T00:41:53.578Z,23.47
2018-01-27T00:42:17.410Z,22.70
2018-01-27T00:42:41.196Z,23.60
2018-01-27T00:43:04.609Z,23.50
2018-01-27T00:43:28.354Z,23.42
2018-01-27T00:43:52.104Z,23.38
2018-01-27T00:44:15.847Z,24.35
2018-01-27T00:44:39.335Z,25.10
2018-01-27T00:45:03.069Z,25.77
2018-01-27T00:45:26.815Z,25.30
2018-01-27T00:45:50.860Z,24.92
2018-01-27T00:46:14.902Z,25.25
2018-01-27T00:46:38.708Z,25.08
2018-01-27T00:47:02.311Z,24.87
2018-01-27T00:47:26.145Z,24.90
2018-01-27T00:47:49.895Z,25.20
2018-01-27T00:48:13.677Z,25.40
2018-01-27T00:48:37.717Z,25.00
2018-01-27T00:49:01.739Z,24.67
2018-01-27T00:49:24.851Z,24.70
2018-01-27T00:49:48.614Z,24.63
2018-01-27T00:50:12.712Z,24.98
2018-01-27T00:50:36.507Z,25.23
2018-01-27T00:51:00.015Z,24.20
2018-01-27T00:51:23.778Z,23.52
2018-01-27T00:51:47.534Z,24.15
2018-01-27T00:52:11.571Z,23.85
2018-01-27T00:52:35.627Z,24.37
2018-01-27T00:52:59.433Z,24.90
2018-01-27T00:53:23.476Z,24.98
2018-01-27T00:53:46.981Z,24.43
2018-01-27T00:54:10.398Z,24.60
2018-01-27T00:54:34.466Z,24.30
2018-01-27T00:54:58.224Z,24.55
2018-01-27T00:55:21.943Z,24.98
2018-01-27T00:55:45.703Z,25.10
2018-01-27T00:56:09.458Z,25.23
2018-01-27T00:56:33.220Z,25.45
2018-01-27T00:56:57.259Z,24.73
2018-01-27T00:57:21.303Z,23.80
2018-01-27T00:57:44.814Z,22.80
2018-01-27T00:58:08.554Z,23.20
2018-01-27T00:58:32.295Z,23.62
2018-01-27T00:58:56.043Z,24.00
2018-01-27T00:59:19.487Z,24.33
2018-01-27T00:59:43.238Z,24.85
2018-01-27T01:00:07.003Z,25.90
2018-01-27T01:00:30.511Z,25.90
2018-01-27T01:00:54.264Z,25.35
2018-01-27T01:01:17.999Z,25.12
2018-01-27T01:01:42.056Z,25.05
2018-01-27T01:02:06.075Z,24.92
2018-01-27T01:02:29.833Z,24.65
2018-01-27T01:02:53.625Z,24.17
2018-01-27T01:03:17.130Z,25.23
2018-01-27T01:03:40.877Z,25.08
2018-01-27T01:04:04.911Z,24.00
2018-01-27T01:04:29.043Z,23.33
2018-01-27T01:04:52.791Z,23.67
2018-01-27T01:05:16.843Z,23.90
2018-01-27T01:05:40.890Z,25.37
2018-01-27T01:06:04.620Z,25.62
2018-01-27T01:06:28.359Z,24.85
2018-01-27T01:06:52.107Z,24.25
2018-01-27T01:07:15.864Z,24.00
2018-01-27T01:07:39.632Z,24.15
2018-01-27T01:08:03.178Z,25.08
2018-01-27T01:08:26.921Z,24.40
2018-01-27T01:08:50.673Z,24.40
2018-01-27T01:09:14.722Z,24.33
2018-01-27T01:09:38.554Z,24.95
2018-01-27T01:10:02.031Z,25.30
2018-01-27T01:10:25.804Z,25.60
2018-01-27T01:10:49.595Z,25.48
2018-01-27T01:11:13.630Z,25.08
2018-01-27T01:11:37.436Z,24.90
2018-01-27T01:12:00.905Z,24.23
2018-01-27T01:12:24.768Z,24.52
2018-01-27T01:12:48.530Z,25.00
2018-01-27T01:13:12.362Z,25.45
2018-01-27T01:13:35.861Z,26.10
2018-01-27T01:13:59.671Z,25.90
2018-01-27T01:14:23.450Z,24.73
2018-01-27T01:14:47.273Z,25.05
2018-01-27T01:15:11.311Z,24.63
2018-01-27T01:15:34.984Z,25.10
2018-01-27T01:15:58.411Z,24.25
2018-01-27T01:16:22.038Z,25.25
2018-01-27T01:16:45.595Z,24.73
2018-01-27T01:17:09.349Z,24.77
2018-01-27T01:17:33.119Z,25.10
2018-01-27T01:17:57.183Z,25.17
2018-01-27T01:18:21.290Z,25.08
2018-01-27T01:18:45.084Z,25.55
2018-01-27T01:19:09.100Z,25.80
2018-01-27T01:19:33.119Z,25.65
2018-01-27T01:19:57.164Z,25.65
2018-01-27T01:20:20.914Z,25.35
2018-01-27T01:20:44.707Z,26.08
2018-01-27T01:21:08.459Z,26.75
2018-01-27T01:21:32.193Z,26.60
2018-01-27T01:21:55.956Z,27.05
2018-01-27T01:22:19.692Z,27.40
2018-01-27T01:22:43.468Z,26.45
2018-01-27T01:23:07.213Z,25.48
2018-01-27T01:23:30.978Z,24.80
2018-01-27T01:23:54.787Z,24.60
2018-01-27T01:24:18.970Z,24.87
2018-01-27T01:24:42.723Z,24.75
2018-01-27T01:25:06.172Z,25.92
2018-01-27T01:25:29.952Z,25.70
2018-01-27T01:25:53.725Z,25.30
2018-01-27T01:26:17.788Z,24.83
2018-01-27T01:26:41.652Z,24.90
2018-01-27T01:27:05.181Z,24.65
2018-01-27T01:27:28.935Z,24.20
2018-01-27T01:27:52.726Z,24.30
2018-01-27T01:28:16.740Z,24.87
2018-01-27T01:28:40.816Z,24.42
2018-01-27T01:29:04.626Z,24.48
2018-01-27T01:29:28.660Z,24.92
2018-01-27T01:29:52.740Z,24.85
2018-01-27T01:30:16.499Z,25.50
2018-01-27T01:30:40.258Z,25.73
2018-01-27T01:31:04.001Z,26.15
2018-01-27T01:31:27.750Z,25.98
2018-01-27T01:31:51.515Z,25.40
2018-01-27T01:32:15.580Z,24.27
2018-01-27T01:32:39.634Z,24.35
2018-01-27T01:33:03.094Z,24.83
2018-01-27T01:33:26.863Z,24.90
2018-01-27T01:33:50.779Z,25.05
2018-01-27T01:34:14.510Z,24.90
2018-01-27T01:34:38.556Z,24.40
2018-01-27T01:35:02.055Z,24.10
2018-01-27T01:35:25.792Z,24.80
2018-01-27T01:35:49.572Z,25.37
2018-01-27T01:36:13.307Z,24.83
2018-01-27T01:36:36.904Z,24.40
2018-01-27T01:37:00.655Z,24.23
2018-01-27T01:37:24.395Z,24.27
2018-01-27T01:37:48.426Z,23.87
2018-01-27T01:38:11.873Z,23.40
2018-01-27T01:38:35.616Z,23.70
2018-01-27T01:38:59.053Z,24.17
2018-01-27T01:39:22.801Z,23.80
2018-01-27T01:39:46.234Z,24.02
2018-01-27T01:40:10.272Z,25.08
2018-01-27T01:40:34.287Z,25.65
2018-01-27T01:40:58.321Z,25.10
2018-01-27T01:41:22.100Z,25.40
2018-01-27T01:41:45.579Z,25.52
2018-01-27T01:42:09.143Z,24.70
2018-01-27T01:42:38.488Z,24.30
2018-01-27T01:43:07.569Z,24.40
2018-01-27T01:43:36.592Z,23.80
2018-01-27T01:44:05.641Z,24.20
2018-01-27T01:44:29.138Z,24.23
2018-01-27T01:44:53.031Z,24.33
2018-01-27T01:45:17.068Z,24.48
2018-01-27T01:45:41.099Z,24.83
2018-01-27T01:46:04.603Z,25.30
2018-01-27T01:46:28.323Z,26.17
2018-01-27T01:46:52.080Z,24.92
2018-01-27T01:47:15.835Z,25.50
2018-01-27T01:47:39.284Z,24.87
2018-01-27T01:48:03.029Z,23.95
2018-01-27T01:48:26.846Z,24.67
2018-01-27T01:48:50.883Z,25.77
2018-01-27T01:49:24.048Z,26.80
2018-01-27T01:49:47.799Z,26.17
2018-01-27T01:50:11.906Z,24.98
2018-01-27T01:50:35.674Z,24.05
2018-01-27T01:50:59.131Z,24.05
2018-01-27T01:51:22.887Z,23.73
2018-01-27T01:51:46.688Z,24.40
2018-01-27T01:52:10.748Z,25.50
2018-01-27T01:52:34.776Z,26.35
2018-01-27T01:52:58.586Z,27.17
2018-01-27T01:53:22.039Z,26.25
2018-01-27T01:53:45.779Z,25.17
2018-01-27T01:54:09.543Z,24.40
2018-01-27T01:54:33.099Z,24.70
2018-01-27T01:54:56.959Z,23.92
2018-01-27T01:55:20.740Z,25.27
2018-01-27T01:55:44.515Z,26.42
2018-01-27T01:56:07.874Z,26.52
2018-01-27T01:56:31.625Z,24.90
2018-01-27T01:56:55.435Z,24.25
2018-01-27T01:57:18.875Z,24.58
2018-01-27T01:57:42.623Z,25.52
2018-01-27T01:58:06.350Z,25.00
2018-01-27T01:58:29.802Z,24.17
2018-01-27T01:58:53.561Z,24.83
2018-01-27T01:59:17.405Z,25.35
2018-01-27T01:59:41.471Z,25.58
2018-01-27T02:00:05.283Z,24.40
2018-01-27T02:00:28.738Z,24.37
2018-01-27T02:00:52.497Z,25.52
2018-01-27T02:01:15.632Z,25.70
2018-01-27T02:01:39.392Z,24.70
2018-01-27T02:02:03.137Z,24.30
2018-01-27T02:02:26.963Z,24.50
2018-01-27T02:02:50.411Z,24.48
2018-01-27T02:03:14.155Z,24.80
2018-01-27T02:03:37.588Z,25.75
2018-01-27T02:04:01.316Z,26.00
2018-01-27T02:04:25.083Z,25.80
2018-01-27T02:04:48.583Z,25.60
2018-01-27T02:05:12.394Z,25.15
2018-01-27T02:05:36.542Z,25.77
2018-01-27T02:05:59.588Z,26.42
2018-01-27T02:06:23.342Z,26.20
2018-01-27T02:06:47.089Z,26.00
2018-01-27T02:07:11.072Z,26.17
2018-01-27T02:07:35.084Z,25.42
2018-01-27T02:07:59.118Z,24.67
2018-01-27T02:08:22.855Z,25.17
2018-01-27T02:08:46.592Z,25.52
2018-01-27T02:09:10.315Z,26.52
2018-01-27T02:09:34.056Z,26.60
2018-01-27T02:09:57.867Z,24.50
2018-01-27T02:10:21.303Z,25.05
2018-01-27T02:10:45.028Z,25.10
2018-01-27T02:11:08.774Z,25.33
2018-01-27T02:11:31.565Z,25.15
2018-01-27T02:11:55.296Z,24.65
2018-01-27T02:12:18.843Z,24.55
2018-01-27T02:12:42.874Z,23.90
2018-01-27T02:13:06.315Z,23.87
2018-01-27T02:13:30.065Z,24.42
2018-01-27T02:13:53.902Z,25.02
2018-01-27T02:14:17.650Z,25.17
2018-01-27T02:14:41.128Z,24.58
2018-01-27T02:15:04.545Z,24.50
2018-01-27T02:15:28.115Z,24.87
2018-01-27T02:15:52.026Z,25.10
2018-01-27T02:16:15.784Z,24.98
2018-01-27T02:16:38.831Z,25.00
2018-01-27T02:17:02.626Z,24.75
2018-01-27T02:17:26.644Z,24.98
2018-01-27T02:17:50.108Z,24.83
2018-01-27T02:18:13.974Z,24.85
2018-01-27T02:18:37.711Z,24.83
2018-01-27T02:19:01.456Z,25.48
2018-01-27T02:19:25.504Z,24.73
2018-01-27T02:19:49.552Z,24.30
2018-01-27T02:20:13.010Z,24.12
2018-01-27T02:20:36.757Z,24.67
2018-01-27T02:20:59.828Z,24.60
2018-01-27T02:21:23.575Z,24.80
2018-01-27T02:21:46.967Z,24.73
2018-01-27T02:22:10.337Z,25.23
2018-01-27T02:22:34.359Z,24.67
2018-01-27T02:22:58.390Z,24.48
2018-01-27T02:23:22.403Z,24.77
2018-01-27T02:23:46.144Z,25.08
2018-01-27T02:24:09.900Z,24.80
2018-01-27T02:24:33.648Z,24.92
2018-01-27T02:24:57.403Z,24.87
2018-01-27T02:25:20.519Z,25.17
2018-01-27T02:25:44.250Z,25.42
2018-01-27T02:26:08.260Z,25.17
2018-01-27T02:26:32.287Z,24.67
2018-01-27T02:26:56.028Z,24.50
2018-01-27T02:27:20.248Z,24.02
2018-01-27T02:27:43.823Z,25.12
2018-01-27T02:28:07.610Z,24.67
2018-01-27T02:28:31.348Z,23.95
2018-01-27T02:28:55.111Z,23.52
2018-01-27T02:29:19.155Z,23.80
2018-01-27T02:29:42.615Z,23.57
2018-01-27T02:30:06.354Z,24.00
2018-01-27T02:30:29.800Z,23.25
2018-01-27T02:30:53.544Z,24.05
2018-01-27T02:31:17.325Z,24.30
2018-01-27T02:31:41.116Z,25.23
2018-01-27T02:32:04.167Z,24.92
2018-01-27T02:32:27.930Z,23.75
2018-01-27T02:32:51.981Z,24.12
2018-01-27T02:33:15.101Z,24.40
2018-01-27T02:33:38.579Z,24.50
2018-01-27T02:34:02.516Z,24.25
2018-01-27T02:34:26.255Z,23.58
2018-01-27T02:34:49.996Z,23.12
2018-01-27T02:35:13.761Z,23.48
2018-01-27T02:35:37.496Z,23.73
2018-01-27T02:36:01.284Z,24.37
2018-01-27T02:36:25.022Z,23.60
2018-01-27T02:36:48.763Z,23.20
2018-01-27T02:37:12.811Z,23.85
2018-01-27T02:37:36.554Z,24.20
2018-01-27T02:38:00.287Z,23.92
2018-01-27T02:38:24.044Z,22.92
2018-01-27T02:38:47.804Z,24.27
2018-01-27T02:39:11.587Z,24.75
2018-01-27T02:39:35.672Z,24.50
2018-01-27T02:39:59.115Z,23.60
2018-01-27T02:40:22.944Z,23.08
2018-01-27T02:40:46.725Z,23.98
2018-01-27T02:41:10.269Z,23.27
2018-01-27T02:41:34.545Z,22.92
2018-01-27T02:41:58.571Z,22.70
2018-01-27T02:42:22.327Z,23.38
2018-01-27T02:42:46.084Z,24.45
2018-01-27T02:43:09.890Z,25.48
2018-01-27T02:43:33.655Z,24.80
2018-01-27T02:43:57.401Z,25.58
2018-01-27T02:44:20.744Z,26.10
2018-01-27T02:44:44.548Z,25.85
2018-01-27T02:45:08.300Z,24.80
2018-01-27T02:45:32.397Z,23.90
2018-01-27T02:45:56.184Z,23.80
2018-01-27T02:46:25.999Z,24.70
2018-01-27T02:46:51.973Z,25.40
2018-01-27T02:47:18.315Z,27.17
2018-01-27T02:47:42.227Z,26.05
2018-01-27T02:48:05.909Z,24.60
2018-01-27T02:48:29.711Z,24.40
2018-01-27T02:48:53.471Z,25.40
2018-01-27T02:49:17.241Z,26.45
2018-01-27T02:49:40.278Z,27.67
2018-01-27T02:50:03.688Z,27.42
2018-01-27T02:50:27.423Z,27.30
2018-01-27T02:50:51.183Z,25.20
2018-01-27T02:51:15.025Z,25.10
2018-01-27T02:51:38.527Z,24.90
2018-01-27T02:52:02.264Z,25.95
2018-01-27T02:52:26.050Z,26.60
2018-01-27T02:52:49.820Z,26.12
2018-01-27T02:53:13.268Z,25.35
2018-01-27T02:53:37.037Z,25.00
2018-01-27T02:54:00.876Z,25.58
2018-01-27T02:54:24.913Z,25.35
2018-01-27T02:54:48.356Z,26.10
2018-01-27T02:55:12.094Z,26.25
2018-01-27T02:55:35.828Z,25.52
2018-01-27T02:55:59.860Z,25.25
2018-01-27T02:56:23.453Z,25.02
2018-01-27T02:56:47.219Z,25.90
2018-01-27T02:57:10.954Z,26.33
2018-01-27T02:57:35.560Z,27.02
2018-01-27T02:57:59.288Z,27.10
2018-01-27T02:58:23.018Z,25.92
2018-01-27T02:58:46.711Z,25.52
2018-01-27T02:59:10.164Z,25.53
2018-01-27T02:59:33.952Z,25.73
2018-01-27T02:59:57.691Z,26.12
2018-01-27T03:00:20.821Z,26.52
2018-01-27T03:00:44.547Z,27.33
2018-01-27T03:01:08.568Z,26.92
2018-01-27T03:01:32.018Z,27.30
2018-01-27T03:01:55.837Z,27.33
2018-01-27T03:02:19.626Z,27.87
2018-01-27T03:02:43.423Z,28.02
2018-01-27T03:03:07.439Z,27.85
2018-01-27T03:03:31.483Z,28.20
2018-01-27T03:03:54.948Z,28.33
2018-01-27T03:04:18.729Z,28.20
2018-01-27T03:04:41.790Z,28.05
2018-01-27T03:05:05.542Z,27.90
2018-01-27T03:05:29.306Z,26.98
2018-01-27T03:05:53.338Z,27.10
2018-01-27T03:06:16.792Z,27.40
2018-01-27T03:06:40.585Z,27.30
2018-01-27T03:07:04.383Z,27.08
2018-01-27T03:07:28.131Z,28.48
2018-01-27T03:07:52.160Z,29.45
2018-01-27T03:08:16.201Z,28.65
2018-01-27T03:08:40.211Z,28.17
2018-01-27T03:09:03.617Z,28.45
2018-01-27T03:09:27.355Z,27.87
2018-01-27T03:09:51.091Z,27.92
2018-01-27T03:10:14.459Z,29.73
2018-01-27T03:10:38.223Z,30.15
2018-01-27T03:11:01.977Z,30.27
2018-01-27T03:11:26.000Z,30.55
2018-01-27T03:11:50.168Z,31.00
2018-01-27T03:12:13.923Z,29.90
2018-01-27T03:12:37.959Z,29.52
2018-01-27T03:13:02.008Z,30.10
2018-01-27T03:13:25.759Z,30.85
2018-01-27T03:13:49.281Z,31.10
2018-01-27T03:14:12.662Z,31.65
2018-01-27T03:14:36.398Z,32.13
2018-01-27T03:15:00.160Z,30.60
2018-01-27T03:15:23.895Z,29.98
2018-01-27T03:15:47.635Z,29.67
2018-01-27T03:16:11.103Z,29.50
2018-01-27T03:16:34.948Z,30.00
2018-01-27T03:16:58.700Z,29.90
2018-01-27T03:17:22.735Z,30.73
2018-01-27T03:17:46.183Z,31.40
2018-01-27T03:18:09.910Z,32.15
2018-01-27T03:18:33.656Z,31.65
2018-01-27T03:18:57.104Z,30.60
2018-01-27T03:19:20.943Z,29.92
2018-01-27T03:19:44.732Z,30.42
2018-01-27T03:20:08.485Z,30.77
2018-01-27T03:20:32.591Z,32.17
2018-01-27T03:20:56.339Z,31.20
2018-01-27T03:21:19.107Z,31.37
2018-01-27T03:21:42.886Z,30.88
2018-01-27T03:22:06.667Z,31.15
2018-01-27T03:22:30.446Z,30.70
2018-01-27T03:22:54.134Z,32.33
2018-01-27T03:23:17.860Z,33.80
2018-01-27T03:23:41.623Z,33.22
2018-01-27T03:24:05.057Z,31.73
2018-01-27T03:24:28.787Z,31.50
2018-01-27T03:24:52.507Z,31.17
2018-01-27T03:25:15.908Z,30.95
2018-01-27T03:25:39.687Z,30.88
2018-01-27T03:26:02.761Z,31.60
2018-01-27T03:26:26.545Z,31.58
2018-01-27T03:26:50.273Z,30.52
2018-01-27T03:27:14.056Z,30.02
2018-01-27T03:27:37.520Z,30.40
2018-01-27T03:28:01.326Z,31.60
2018-01-27T03:28:25.144Z,32.28
2018-01-27T03:28:49.157Z,32.53
2018-01-27T03:29:12.969Z,33.03
2018-01-27T03:29:37.017Z,31.27
2018-01-27T03:30:01.067Z,31.50
2018-01-27T03:30:24.540Z,32.23
2018-01-27T03:30:48.269Z,33.00
2018-01-27T03:31:11.320Z,31.98
2018-01-27T03:31:35.045Z,30.77
2018-01-27T03:31:58.893Z,30.05
2018-01-27T03:32:23.014Z,30.67
2018-01-27T03:32:46.776Z,31.30
2018-01-27T03:33:10.231Z,31.52
2018-01-27T03:33:33.983Z,31.58
2018-01-27T03:33:57.809Z,31.10
2018-01-27T03:34:22.136Z,32.13
2018-01-27T03:34:45.927Z,32.20
2018-01-27T03:35:09.679Z,32.85
2018-01-27T03:35:33.047Z,32.47
2018-01-27T03:35:56.775Z,31.62
2018-01-27T03:36:20.525Z,32.30
2018-01-27T03:36:44.323Z,31.70
2018-01-27T03:37:08.058Z,32.50
2018-01-27T03:37:31.823Z,33.15
2018-01-27T03:37:55.613Z,32.45
2018-01-27T03:38:22.618Z,32.20
2018-01-27T03:38:46.626Z,32.67
2018-01-27T03:39:10.038Z,33.28
2018-01-27T03:39:33.771Z,34.05
2018-01-27T03:39:57.547Z,34.58
2018-01-27T03:40:20.811Z,34.60
2018-01-27T03:40:44.575Z,34.50
2018-01-27T03:41:08.330Z,33.30
2018-01-27T03:41:31.830Z,32.45
2018-01-27T03:41:55.590Z,33.03
2018-01-27T03:42:19.321Z,34.25
2018-01-27T03:42:43.419Z,34.78
2018-01-27T03:43:07.176Z,34.00
2018-01-27T03:43:30.977Z,34.13
2018-01-27T03:43:54.453Z,35.42
2018-01-27T03:44:18.210Z,34.90
2018-01-27T03:44:42.241Z,34.05
2018-01-27T03:45:06.253Z,32.97
2018-01-27T03:45:30.051Z,33.25
2018-01-27T03:45:53.833Z,34.15
2018-01-27T03:46:17.612Z,35.13
2018-01-27T03:46:41.379Z,35.35
2018-01-27T03:47:05.115Z,34.65
2018-01-27T03:47:29.183Z,33.70
2018-01-27T03:47:52.972Z,33.58
2018-01-27T03:48:16.441Z,33.22
2018-01-27T03:48:40.179Z,33.60
2018-01-27T03:49:04.157Z,33.40
2018-01-27T03:49:27.899Z,34.30
2018-01-27T03:49:51.414Z,34.25
2018-01-27T03:50:15.151Z,33.58
2018-01-27T03:50:38.544Z,33.95
2018-01-27T03:51:02.305Z,35.47
2018-01-27T03:51:26.064Z,36.35
2018-01-27T03:51:49.810Z,36.45
2018-01-27T03:52:13.264Z,35.92
2018-01-27T03:52:37.028Z,37.35
2018-01-27T03:53:00.480Z,36.45
2018-01-27T03:53:24.219Z,36.13
2018-01-27T03:53:47.992Z,35.92
2018-01-27T03:54:11.798Z,35.83
2018-01-27T03:54:35.844Z,35.42
2018-01-27T03:54:59.309Z,36.30
2018-01-27T03:55:23.069Z,37.00
2018-01-27T03:55:46.876Z,37.15
2018-01-27T03:56:10.629Z,36.50
2018-01-27T03:56:34.113Z,36.97
2018-01-27T03:56:57.843Z,37.53
2018-01-27T03:57:21.658Z,36.13
2018-01-27T03:57:45.685Z,35.30
2018-01-27T03:58:09.731Z,36.55
2018-01-27T03:58:33.499Z,36.65
2018-01-27T03:58:56.950Z,36.10
2018-01-27T03:59:20.691Z,37.13
2018-01-27T03:59:44.511Z,37.10
2018-01-27T04:00:08.598Z,37.22
2018-01-27T04:00:32.613Z,38.80
2018-01-27T04:00:56.354Z,39.78
2018-01-27T04:01:20.091Z,38.63
2018-01-27T04:01:43.900Z,38.33
2018-01-27T04:02:07.686Z,38.72
2018-01-27T04:02:31.511Z,37.90
2018-01-27T04:02:55.263Z,37.80
2018-01-27T04:03:19.025Z,37.20
2018-01-27T04:03:42.772Z,37.92
2018-01-27T04:04:06.581Z,38.53
2018-01-27T04:04:30.006Z,39.97
2018-01-27T04:04:53.768Z,40.47
2018-01-27T04:05:17.567Z,38.97
2018-01-27T04:05:41.366Z,38.70
2018-01-27T04:06:05.105Z,39.47
2018-01-27T04:06:28.856Z,39.80
2018-01-27T04:06:52.636Z,39.03
2018-01-27T04:07:16.395Z,36.55
2018-01-27T04:07:40.177Z,35.20
2018-01-27T04:08:03.939Z,35.72
2018-01-27T04:08:27.810Z,35.90
2018-01-27T04:08:51.258Z,36.10
2018-01-27T04:09:15.005Z,37.13
2018-01-27T04:09:39.027Z,37.40
2018-01-27T04:10:03.063Z,36.42
2018-01-27T04:10:27.196Z,37.80
2018-01-27T04:10:51.075Z,37.88
2018-01-27T04:11:14.850Z,38.03
2018-01-27T04:11:38.297Z,37.58
2018-01-27T04:12:02.057Z,36.67
2018-01-27T04:12:25.899Z,37.75
2018-01-27T04:12:49.917Z,38.53
2018-01-27T04:13:13.261Z,38.92
2018-01-27T04:13:37.189Z,38.90
2018-01-27T04:14:00.972Z,39.10
2018-01-27T04:14:24.713Z,38.97
2018-01-27T04:14:47.840Z,39.53
2018-01-27T04:15:11.862Z,39.70
2018-01-27T04:15:35.343Z,40.07
2018-01-27T04:15:59.078Z,39.45
2018-01-27T04:16:22.860Z,38.88
2018-01-27T04:16:46.629Z,39.10
2018-01-27T04:17:10.075Z,38.67
2018-01-27T04:17:33.181Z,38.15
2018-01-27T04:17:56.930Z,37.03
2018-01-27T04:18:20.760Z,37.22
2018-01-27T04:18:44.599Z,38.88
2018-01-27T04:19:08.624Z,39.55
2018-01-27T04:19:32.640Z,38.88
2018-01-27T04:19:56.093Z,38.10
2018-01-27T04:20:19.833Z,37.30
2018-01-27T04:20:43.615Z,38.15
2018-01-27T04:21:07.379Z,37.53
2018-01-27T04:21:30.974Z,37.85
2018-01-27T04:21:54.748Z,38.08
2018-01-27T04:22:18.529Z,38.00
2018-01-27T04:22:42.291Z,38.28
2018-01-27T04:23:06.026Z,38.33
2018-01-27T04:23:29.769Z,39.15
2018-01-27T04:23:53.743Z,38.83
2018-01-27T04:24:17.483Z,38.85
2018-01-27T04:24:41.223Z,38.22
2018-01-27T04:25:04.666Z,38.97
2018-01-27T04:25:28.453Z,39.88
2018-01-27T04:25:52.195Z,40.47
2018-01-27T04:26:15.649Z,39.97
2018-01-27T04:26:39.441Z,39.60
2018-01-27T04:27:03.172Z,38.45
2018-01-27T04:27:27.283Z,38.25
2018-01-27T04:27:50.733Z,38.60
2018-01-27T04:28:14.515Z,38.83
2018-01-27T04:28:38.243Z,39.05
2018-01-27T04:29:02.027Z,37.20
2018-01-27T04:29:25.551Z,36.75
2018-01-27T04:29:49.280Z,36.00
2018-01-27T04:30:13.064Z,37.42
2018-01-27T04:30:37.107Z,38.85
2018-01-27T04:31:00.568Z,40.07
2018-01-27T04:31:24.329Z,39.53
2018-01-27T04:31:48.142Z,38.42
2018-01-27T04:32:11.941Z,37.50
2018-01-27T04:32:35.738Z,37.13
2018-01-27T04:32:59.485Z,36.25
2018-01-27T04:33:23.317Z,37.55
2018-01-27T04:33:47.063Z,37.63
2018-01-27T04:34:10.983Z,38.35
2018-01-27T04:34:34.928Z,37.13
2018-01-27T04:34:58.695Z,36.08
2018-01-27T04:35:22.147Z,35.70
2018-01-27T04:35:46.002Z,36.42
2018-01-27T04:36:09.771Z,37.38
2018-01-27T04:36:33.856Z,38.38
2018-01-27T04:36:57.607Z,39.30
2018-01-27T04:37:21.090Z,37.92
2018-01-27T04:37:44.882Z,38.13
2018-01-27T04:38:07.923Z,38.53
2018-01-27T04:38:31.779Z,38.85
2018-01-27T04:38:55.574Z,39.05
2018-01-27T04:39:19.667Z,40.38
2018-01-27T04:39:43.701Z,39.95
2018-01-27T04:40:07.462Z,39.53
2018-01-27T04:40:30.943Z,40.00
2018-01-27T04:40:54.359Z,39.97
2018-01-27T04:41:18.109Z,38.70
2018-01-27T04:41:41.543Z,37.80
2018-01-27T04:42:05.566Z,38.10
2018-01-27T04:42:29.039Z,38.47
2018-01-27T04:42:52.424Z,38.30
2018-01-27T04:43:15.771Z,38.63
2018-01-27T04:43:39.503Z,38.78
2018-01-27T04:44:03.158Z,38.13
2018-01-27T04:44:26.975Z,38.78
2018-01-27T04:44:50.783Z,38.20
2018-01-27T04:45:14.354Z,37.47
2018-01-27T04:45:38.440Z,36.80
2018-01-27T04:46:02.219Z,36.80
2018-01-27T04:46:26.112Z,37.15
2018-01-27T04:46:49.555Z,37.38
2018-01-27T04:47:13.339Z,36.85
2018-01-27T04:47:37.082Z,37.45
2018-01-27T04:48:00.556Z,39.53
2018-01-27T04:48:24.342Z,40.20
2018-01-27T04:48:48.126Z,39.40
2018-01-27T04:49:12.150Z,38.00
2018-01-27T04:49:36.216Z,39.40
2018-01-27T04:49:59.971Z,39.05
2018-01-27T04:50:23.503Z,39.42
2018-01-27T04:50:47.236Z,39.65
2018-01-27T04:51:11.038Z,37.85
2018-01-27T04:51:35.110Z,36.33
2018-01-27T04:51:58.897Z,37.45
2018-01-27T04:52:22.936Z,39.33
2018-01-27T04:52:47.047Z,38.63
2018-01-27T04:53:10.828Z,37.40
2018-01-27T04:53:34.281Z,38.70
2018-01-27T04:53:58.055Z,37.72
2018-01-27T04:54:21.890Z,38.50
2018-01-27T04:54:45.950Z,38.03
2018-01-27T04:55:09.726Z,37.55
2018-01-27T04:55:33.167Z,37.05
2018-01-27T04:55:56.930Z,36.83
2018-01-27T04:56:20.668Z,36.97
2018-01-27T04:56:44.143Z,37.53
2018-01-27T04:57:07.876Z,38.65
2018-01-27T04:57:31.690Z,38.45
2018-01-27T04:57:55.726Z,37.22
2018-01-27T04:58:19.760Z,38.70
2018-01-27T04:58:43.503Z,40.00
2018-01-27T04:59:07.254Z,39.47
2018-01-27T04:59:31.032Z,40.28
2018-01-27T04:59:54.804Z,39.55
2018-01-27T05:00:18.571Z,39.10
2018-01-27T05:00:42.654Z,38.47
2018-01-27T05:01:06.416Z,37.47
2018-01-27T05:01:29.902Z,36.80
2018-01-27T05:01:53.645Z,37.28
2018-01-27T05:02:17.607Z,38.17
2018-01-27T05:02:41.436Z,39.17
2018-01-27T05:03:05.034Z,39.75
2018-01-27T05:03:28.771Z,38.53
2018-01-27T05:03:52.516Z,39.47
2018-01-27T05:04:16.246Z,39.38
2018-01-27T05:04:39.732Z,40.60
2018-01-27T05:05:03.633Z,40.45
2018-01-27T05:05:27.503Z,39.97
2018-01-27T05:05:51.287Z,38.55
2018-01-27T05:06:15.324Z,37.50
2018-01-27T05:06:39.104Z,38.80